Time;durP1;ratioP1;P1;durP2;ratioP2;P2;SDS_P1;SDS_P2;PMS_P1;PMS_P2;Temp;Humidity;BMP_temperature;BMP_pressure;BME280_temperature;BME280_humidity;BME280_pressure;Samples;Min_cycle;Max_cycle;Signal;HPM_P1;HPM_P2
2023/04/06 00:01:52;;;;;;;11.48;4.63;;;;;;;;;;5010944;28;20054;-60
2023/04/06 00:04:19;;;;;;;9.27;4.05;;;;;;;;;;5010819;28;20062;-63
2023/04/06 00:06:46;;;;;;;9.20;4.53;;;;;;;;;;5011098;28;20514;-62
2023/04/06 00:09:12;;;;;;;9.90;4.07;;;;;;;;;;5010394;28;20041;-63
2023/04/06 00:11:39;;;;;;;6.07;3.90;;;;;;;;;;5010907;28;20052;-62
2023/04/06 00:14:05;;;;;;;7.25;3.90;;;;;;;;;;5009369;28;20088;-62
2023/04/06 00:16:32;;;;;;;8.45;4.88;;;;;;;;;;5010870;28;20046;-61
2023/04/06 00:19:00;;;;;;;8.27;4.53;;;;;;;;;;5010521;28;20052;-64
2023/04/06 00:21:26;;;;;;;7.25;4.30;;;;;;;;;;5011179;28;20050;-61
2023/04/06 00:23:53;;;;;;;5.90;4.25;;;;;;;;;;5010639;28;20124;-63
2023/04/06 00:26:20;;;;;;;7.60;3.97;;;;;;;;;;5011150;28;20054;-63
2023/04/06 00:28:46;;;;;;;8.15;4.95;;;;;;;;;;5009945;28;20046;-62
2023/04/06 00:31:13;;;;;;;8.50;4.45;;;;;;;;;;5010593;28;20133;-64
2023/04/06 00:33:39;;;;;;;5.63;4.18;;;;;;;;;;5010011;28;20050;-63
2023/04/06 00:36:08;;;;;;;6.78;4.03;;;;;;;;;;5010545;28;20048;-63
2023/04/06 00:38:34;;;;;;;7.78;4.15;;;;;;;;;;5010027;28;20061;-63
2023/04/06 00:41:01;;;;;;;6.43;4.05;;;;;;;;;;5010553;28;20060;-63
2023/04/06 00:43:27;;;;;;;7.07;4.07;;;;;;;;;;5010387;28;20141;-62
2023/04/06 00:45:54;;;;;;;10.38;4.40;;;;;;;;;;5010407;28;20054;-63
2023/04/06 00:48:21;;;;;;;8.35;4.30;;;;;;;;;;5010168;28;20323;-62
2023/04/06 00:50:48;;;;;;;7.35;4.18;;;;;;;;;;5010551;28;20496;-62
2023/04/06 00:53:16;;;;;;;6.45;3.97;;;;;;;;;;5010227;28;20072;-60
2023/04/06 00:55:42;;;;;;;5.43;4.13;;;;;;;;;;5009768;28;20053;-61
2023/04/06 00:58:09;;;;;;;7.70;4.05;;;;;;;;;;5009964;28;20133;-62
2023/04/06 01:00:36;;;;;;;6.20;3.83;;;;;;;;;;5010136;28;20073;-63
2023/04/06 01:03:03;;;;;;;8.82;3.92;;;;;;;;;;5010037;28;20129;-62
2023/04/06 01:05:30;;;;;;;6.10;3.90;;;;;;;;;;5010533;28;20060;-62
2023/04/06 01:07:56;;;;;;;6.32;4.07;;;;;;;;;;5010021;28;20050;-64
2023/04/06 01:10:29;;;;;;;7.20;4.07;;;;;;;;;;5009713;28;20057;-63
2023/04/06 01:12:55;;;;;;;8.65;4.20;;;;;;;;;;5010188;28;20129;-62
2023/04/06 01:15:22;;;;;;;6.80;4.55;;;;;;;;;;5009848;28;20046;-64
2023/04/06 01:17:49;;;;;;;6.40;3.33;;;;;;;;;;5009957;28;20045;-64
2023/04/06 01:20:15;;;;;;;6.88;4.05;;;;;;;;;;5009913;28;20411;-62
2023/04/06 01:22:43;;;;;;;8.45;4.20;;;;;;;;;;5010086;28;20048;-62
2023/04/06 01:25:11;;;;;;;7.22;4.03;;;;;;;;;;5009751;28;20054;-62
2023/04/06 01:27:38;;;;;;;7.80;4.10;;;;;;;;;;5014079;28;20058;-63
2023/04/06 01:30:05;;;;;;;8.05;4.38;;;;;;;;;;5014150;28;20046;-63
2023/04/06 01:32:32;;;;;;;5.97;3.80;;;;;;;;;;5013763;28;20054;-62
2023/04/06 01:34:58;;;;;;;6.25;3.83;;;;;;;;;;5013743;28;20530;-64
2023/04/06 01:37:25;;;;;;;6.72;4.03;;;;;;;;;;5013109;28;20507;-64
2023/04/06 01:39:53;;;;;;;5.60;3.78;;;;;;;;;;5013802;28;20408;-61
2023/04/06 01:42:20;;;;;;;8.02;3.78;;;;;;;;;;5013322;28;20053;-60
2023/04/06 01:44:46;;;;;;;6.75;4.10;;;;;;;;;;5013393;28;20060;-63
2023/04/06 01:47:13;;;;;;;6.07;3.67;;;;;;;;;;5013211;28;20041;-64
2023/04/06 01:49:40;;;;;;;7.32;4.00;;;;;;;;;;5013416;28;20042;-62
2023/04/06 01:52:06;;;;;;;6.30;3.80;;;;;;;;;;5013094;28;20046;-64
2023/04/06 01:54:33;;;;;;;6.05;3.88;;;;;;;;;;5013465;28;20384;-64
2023/04/06 01:57:01;;;;;;;5.82;4.03;;;;;;;;;;5013137;28;20068;-63
2023/04/06 01:59:27;;;;;;;6.28;3.90;;;;;;;;;;5013456;28;20060;-64
2023/04/06 02:01:54;;;;;;;6.65;4.03;;;;;;;;;;5013398;28;20046;-64
2023/04/06 02:04:21;;;;;;;5.00;3.70;;;;;;;;;;5013229;28;20053;-63
2023/04/06 02:06:47;;;;;;;6.38;3.72;;;;;;;;;;5012816;28;20406;-64
2023/04/06 02:09:14;;;;;;;6.40;3.92;;;;;;;;;;5013042;28;20042;-64
2023/04/06 02:11:41;;;;;;;6.10;3.85;;;;;;;;;;5012978;28;20045;-62
2023/04/06 02:14:09;;;;;;;6.03;3.90;;;;;;;;;;5013085;28;20050;-62
2023/04/06 02:16:36;;;;;;;6.68;4.20;;;;;;;;;;5012804;28;20507;-62
2023/04/06 02:19:02;;;;;;;7.03;4.53;;;;;;;;;;5012792;28;20637;-62
2023/04/06 02:21:29;;;;;;;6.13;3.83;;;;;;;;;;5013000;28;20050;-61
2023/04/06 02:23:56;;;;;;;6.43;3.92;;;;;;;;;;5012808;28;20380;-61
2023/04/06 02:26:23;;;;;;;6.78;4.45;;;;;;;;;;5012976;28;20071;-63
2023/04/06 02:28:49;;;;;;;5.70;4.25;;;;;;;;;;5012492;28;20484;-61
2023/04/06 02:31:17;;;;;;;7.72;3.90;;;;;;;;;;5013010;28;20045;-62
2023/04/06 02:33:44;;;;;;;5.97;4.03;;;;;;;;;;5012448;28;20419;-62
2023/04/06 02:36:10;;;;;;;5.63;3.22;;;;;;;;;;5012954;28;20049;-63
2023/04/06 02:38:37;;;;;;;5.75;3.60;;;;;;;;;;5011471;28;20045;-61
2023/04/06 02:41:04;;;;;;;5.80;3.75;;;;;;;;;;5012915;28;20056;-63
2023/04/06 02:43:30;;;;;;;7.15;3.60;;;;;;;;;;5012194;28;20057;-63
2023/04/06 02:45:57;;;;;;;6.60;3.83;;;;;;;;;;5012282;28;20042;-63
2023/04/06 02:48:25;;;;;;;6.85;3.72;;;;;;;;;;5011640;28;20133;-63
2023/04/06 02:50:51;;;;;;;7.18;4.35;;;;;;;;;;5012643;28;20503;-63
2023/04/06 02:53:18;;;;;;;7.05;3.80;;;;;;;;;;5011917;28;20042;-61
2023/04/06 02:55:45;;;;;;;6.90;3.63;;;;;;;;;;5012258;28;20046;-63
2023/04/06 02:58:11;;;;;;;8.65;4.70;;;;;;;;;;5011803;28;20057;-64
2023/04/06 03:00:38;;;;;;;6.22;3.90;;;;;;;;;;5012098;28;20042;-62
2023/04/06 03:03:05;;;;;;;6.05;3.78;;;;;;;;;;5011730;28;20052;-61
2023/04/06 03:05:32;;;;;;;5.65;3.58;;;;;;;;;;5012233;28;20058;-63
2023/04/06 03:07:59;;;;;;;6.38;3.90;;;;;;;;;;5012017;28;20046;-63
2023/04/06 03:10:26;;;;;;;8.57;4.07;;;;;;;;;;5011817;28;20053;-64
2023/04/06 03:12:52;;;;;;;7.80;4.25;;;;;;;;;;5011997;28;20042;-62
2023/04/06 03:15:19;;;;;;;5.90;4.00;;;;;;;;;;5011316;28;20050;-63
2023/04/06 03:17:45;;;;;;;6.75;3.90;;;;;;;;;;5011674;28;20379;-61
2023/04/06 03:20:12;;;;;;;9.35;4.05;;;;;;;;;;5011535;28;20046;-62
2023/04/06 03:22:40;;;;;;;5.57;3.72;;;;;;;;;;5011826;28;20492;-62
2023/04/06 03:25:08;;;;;;;5.82;4.28;;;;;;;;;;5011501;28;20054;-61
2023/04/06 03:27:34;;;;;;;5.78;4.00;;;;;;;;;;5011522;28;20504;-64
2023/04/06 03:30:01;;;;;;;6.25;3.95;;;;;;;;;;5011130;28;20060;-62
2023/04/06 03:32:27;;;;;;;8.25;4.18;;;;;;;;;;5011869;28;20052;-63
2023/04/06 03:34:54;;;;;;;7.25;3.78;;;;;;;;;;5011314;28;20484;-62
2023/04/06 03:37:20;;;;;;;5.70;3.83;;;;;;;;;;5011571;28;20046;-64
2023/04/06 03:39:48;;;;;;;7.35;4.30;;;;;;;;;;5011678;28;20393;-63
2023/04/06 03:42:15;;;;;;;6.20;3.95;;;;;;;;;;5011632;28;20045;-62
2023/04/06 03:44:42;;;;;;;6.32;4.20;;;;;;;;;;5010744;28;20058;-64
2023/04/06 03:47:08;;;;;;;6.63;4.30;;;;;;;;;;5011370;28;20049;-63
2023/04/06 03:49:35;;;;;;;6.32;4.07;;;;;;;;;;5011176;28;20042;-64
2023/04/06 03:52:02;;;;;;;8.15;3.88;;;;;;;;;;5011601;28;20504;-63
2023/04/06 03:54:29;;;;;;;6.75;4.00;;;;;;;;;;5011248;28;20052;-64
2023/04/06 03:56:57;;;;;;;6.45;3.90;;;;;;;;;;5010540;28;20052;-64
2023/04/06 03:59:24;;;;;;;6.55;4.00;;;;;;;;;;5010912;28;20052;-64
2023/04/06 04:01:50;;;;;;;7.25;4.03;;;;;;;;;;5010919;28;20077;-64
2023/04/06 04:04:17;;;;;;;8.60;4.18;;;;;;;;;;5011084;28;20053;-64
2023/04/06 04:06:44;;;;;;;6.18;3.97;;;;;;;;;;5010726;28;20053;-62
2023/04/06 04:09:10;;;;;;;9.77;4.13;;;;;;;;;;5010797;28;20104;-63
2023/04/06 04:11:37;;;;;;;6.57;4.28;;;;;;;;;;5010427;28;20048;-62
2023/04/06 04:14:05;;;;;;;5.93;3.83;;;;;;;;;;5010938;28;20068;-62
2023/04/06 04:16:31;;;;;;;7.68;4.15;;;;;;;;;;5010301;28;20057;-64
2023/04/06 04:18:58;;;;;;;7.40;4.60;;;;;;;;;;5010606;28;20327;-62
2023/04/06 04:21:26;;;;;;;8.15;4.38;;;;;;;;;;5010638;28;20050;-64
2023/04/06 04:23:53;;;;;;;8.57;4.13;;;;;;;;;;5010536;28;20045;-63
2023/04/06 04:26:20;;;;;;;6.43;4.05;;;;;;;;;;5010296;28;20049;-62
2023/04/06 04:28:46;;;;;;;6.63;4.15;;;;;;;;;;5010365;28;20076;-62
2023/04/06 04:31:14;;;;;;;7.95;4.07;;;;;;;;;;5010477;28;20389;-61
2023/04/06 04:33:41;;;;;;;9.50;4.10;;;;;;;;;;5033837;22;20043;-68
2023/04/06 04:36:09;;;;;;;7.82;3.92;;;;;;;;;;5030125;28;20045;-68
2023/04/06 04:38:36;;;;;;;6.82;4.25;;;;;;;;;;5029714;28;20055;-68
2023/04/06 04:41:03;;;;;;;6.20;4.20;;;;;;;;;;5030260;28;20056;-68
2023/04/06 04:43:29;;;;;;;7.82;4.85;;;;;;;;;;5030579;28;20483;-69
2023/04/06 04:45:56;;;;;;;7.47;4.30;;;;;;;;;;5030704;28;20465;-68
2023/04/06 04:48:24;;;;;;;7.28;4.45;;;;;;;;;;5029988;28;20045;-67
2023/04/06 04:50:50;;;;;;;7.10;4.88;;;;;;;;;;5030220;28;20487;-67
2023/04/06 04:53:17;;;;;;;7.68;3.97;;;;;;;;;;5029631;28;20490;-68
2023/04/06 04:55:43;;;;;;;8.25;4.68;;;;;;;;;;5030139;28;20053;-69
2023/04/06 04:58:14;;;;;;;7.07;4.00;;;;;;;;;;5029320;28;20049;-69
2023/04/06 05:00:40;;;;;;;7.43;4.28;;;;;;;;;;5029612;28;20049;-68
2023/04/06 05:03:07;;;;;;;8.13;4.60;;;;;;;;;;5029739;28;20410;-68
2023/04/06 05:05:35;;;;;;;7.20;4.13;;;;;;;;;;5030033;28;20053;-68
2023/04/06 05:08:02;;;;;;;5.95;3.80;;;;;;;;;;5029211;28;20042;-68
2023/04/06 05:10:29;;;;;;;6.95;4.25;;;;;;;;;;5030133;28;20050;-68
2023/04/06 05:12:55;;;;;;;8.05;4.35;;;;;;;;;;5029349;28;20046;-68
2023/04/06 05:15:22;;;;;;;5.93;4.00;;;;;;;;;;5029869;28;20053;-68
2023/04/06 05:17:49;;;;;;;9.48;4.35;;;;;;;;;;5029311;28;20049;-68
2023/04/06 05:20:15;;;;;;;7.95;4.70;;;;;;;;;;5029723;28;20136;-67
2023/04/06 05:22:43;;;;;;;9.23;5.15;;;;;;;;;;5029656;28;20064;-68
2023/04/06 05:25:10;;;;;;;6.75;4.40;;;;;;;;;;5029911;28;20073;-68
2023/04/06 05:27:37;;;;;;;8.32;3.92;;;;;;;;;;5028992;28;20050;-67
2023/04/06 05:30:04;;;;;;;8.02;4.07;;;;;;;;;;5030077;28;20136;-68
2023/04/06 05:32:30;;;;;;;6.28;4.35;;;;;;;;;;5029486;28;20503;-67
2023/04/06 05:34:57;;;;;;;9.02;4.30;;;;;;;;;;5029121;28;20045;-67
2023/04/06 05:37:23;;;;;;;9.68;4.40;;;;;;;;;;5029608;28;20049;-69
2023/04/06 05:39:51;;;;;;;10.18;4.68;;;;;;;;;;5029368;28;20295;-69
2023/04/06 05:42:18;;;;;;;7.63;4.20;;;;;;;;;;5029706;28;20418;-69
2023/04/06 05:44:44;;;;;;;8.05;4.25;;;;;;;;;;5029241;28;20050;-70
2023/04/06 05:47:11;;;;;;;6.47;4.35;;;;;;;;;;5029482;28;20419;-70
2023/04/06 05:49:38;;;;;;;8.30;4.18;;;;;;;;;;5029219;28;20062;-69
2023/04/06 05:52:05;;;;;;;8.10;4.55;;;;;;;;;;5030083;28;20054;-69
2023/04/06 05:54:31;;;;;;;7.20;4.85;;;;;;;;;;5029480;28;20541;-69
2023/04/06 05:56:59;;;;;;;6.55;4.80;;;;;;;;;;5029121;28;20292;-69
2023/04/06 05:59:26;;;;;;;6.20;4.32;;;;;;;;;;5029391;28;20483;-69
2023/04/06 06:01:52;;;;;;;10.07;4.75;;;;;;;;;;5029478;28;20519;-69
2023/04/06 06:04:19;;;;;;;6.85;4.45;;;;;;;;;;5028955;28;20056;-69
2023/04/06 06:06:45;;;;;;;10.65;4.72;;;;;;;;;;5029585;28;20494;-70
2023/04/06 06:09:12;;;;;;;8.30;4.50;;;;;;;;;;5028727;28;20045;-69
2023/04/06 06:11:38;;;;;;;8.52;4.95;;;;;;;;;;5029447;28;20045;-70
2023/04/06 06:14:06;;;;;;;7.78;4.75;;;;;;;;;;5031993;28;20041;-70
2023/04/06 06:16:33;;;;;;;8.43;4.63;;;;;;;;;;5032923;28;20045;-70
2023/04/06 06:19:00;;;;;;;7.05;4.47;;;;;;;;;;5032435;28;20479;-70
2023/04/06 06:21:26;;;;;;;7.68;4.55;;;;;;;;;;5032751;28;20144;-69
2023/04/06 06:23:54;;;;;;;10.98;5.60;;;;;;;;;;5032647;28;20487;-70
2023/04/06 06:26:21;;;;;;;6.95;4.72;;;;;;;;;;5032356;28;20057;-70
2023/04/06 06:28:48;;;;;;;8.57;4.68;;;;;;;;;;5032238;28;20085;-70
2023/04/06 06:31:16;;;;;;;10.05;5.20;;;;;;;;;;5032087;28;20107;-70
2023/04/06 06:33:43;;;;;;;6.07;4.68;;;;;;;;;;5032280;28;20071;-70
2023/04/06 06:36:10;;;;;;;6.93;4.72;;;;;;;;;;5032459;28;20045;-69
2023/04/06 06:38:36;;;;;;;8.05;5.20;;;;;;;;;;5032034;28;20061;-70
2023/04/06 06:41:03;;;;;;;7.32;5.10;;;;;;;;;;5032060;28;20052;-68
2023/04/06 06:43:29;;;;;;;10.27;4.93;;;;;;;;;;5032847;28;20081;-68
2023/04/06 06:45:56;;;;;;;9.20;5.57;;;;;;;;;;5032184;28;20083;-68
2023/04/06 06:48:24;;;;;;;9.50;5.10;;;;;;;;;;5032391;28;20045;-68
2023/04/06 06:50:50;;;;;;;7.72;5.10;;;;;;;;;;5032365;28;20056;-68
2023/04/06 06:53:17;;;;;;;8.68;5.15;;;;;;;;;;5032474;28;20051;-69
2023/04/06 06:55:44;;;;;;;12.60;5.22;;;;;;;;;;5032188;28;20379;-69
2023/04/06 06:58:11;;;;;;;9.02;5.47;;;;;;;;;;5032704;28;20056;-69
2023/04/06 07:00:38;;;;;;;9.38;4.75;;;;;;;;;;5032175;28;20048;-69
2023/04/06 07:03:04;;;;;;;8.70;4.93;;;;;;;;;;5032539;28;20045;-68
2023/04/06 07:05:32;;;;;;;9.40;5.47;;;;;;;;;;5032279;28;20104;-68
2023/04/06 07:07:59;;;;;;;8.00;4.90;;;;;;;;;;5032034;28;20046;-68
2023/04/06 07:10:26;;;;;;;8.38;5.40;;;;;;;;;;5032172;28;20045;-69
2023/04/06 07:12:53;;;;;;;10.93;4.93;;;;;;;;;;5031631;28;20053;-69
2023/04/06 07:15:20;;;;;;;9.23;5.43;;;;;;;;;;5032352;28;20060;-68
2023/04/06 07:17:46;;;;;;;8.32;5.13;;;;;;;;;;5031704;28;20410;-67
2023/04/06 07:20:13;;;;;;;6.40;4.50;;;;;;;;;;5032146;28;20042;-67
2023/04/06 07:22:43;;;;;;;8.13;4.78;;;;;;;;;;5031574;28;20352;-67
2023/04/06 07:25:10;;;;;;;7.32;5.07;;;;;;;;;;5031272;28;20452;-68
2023/04/06 07:31:08;;;;;;;8.40;4.82;;;;;;;;;;4997946;28;20503;-69
2023/04/06 07:33:35;;;;;;;9.20;5.18;;;;;;;;;;5030916;28;20049;-69
2023/04/06 07:36:02;;;;;;;8.40;5.30;;;;;;;;;;5031496;28;20045;-69
2023/04/06 07:38:29;;;;;;;8.48;5.43;;;;;;;;;;5034763;28;20046;-69
2023/04/06 07:40:56;;;;;;;6.53;5.28;;;;;;;;;;5031219;28;20041;-69
2023/04/06 07:43:22;;;;;;;8.68;5.38;;;;;;;;;;5030723;28;20050;-69
2023/04/06 07:45:49;;;;;;;9.88;5.25;;;;;;;;;;5031248;28;20049;-69
2023/04/06 07:48:16;;;;;;;8.80;5.40;;;;;;;;;;5030205;28;20133;-69
2023/04/06 07:50:42;;;;;;;10.70;5.57;;;;;;;;;;5031107;28;20052;-68
2023/04/06 07:53:09;;;;;;;9.48;5.68;;;;;;;;;;5030601;28;20046;-69
2023/04/06 07:55:37;;;;;;;9.63;6.25;;;;;;;;;;5022977;28;20076;-68
2023/04/06 07:58:04;;;;;;;9.50;5.80;;;;;;;;;;5029552;28;20129;-69
2023/04/06 08:00:30;;;;;;;11.00;6.18;;;;;;;;;;5026251;28;20050;-68
2023/04/06 08:02:57;;;;;;;9.40;5.90;;;;;;;;;;5030102;28;20045;-68
2023/04/06 08:05:23;;;;;;;8.73;6.07;;;;;;;;;;5031088;28;20050;-69
2023/04/06 08:07:50;;;;;;;9.57;6.10;;;;;;;;;;5030320;28;20057;-69
2023/04/06 08:10:17;;;;;;;13.55;6.40;;;;;;;;;;5030630;28;20056;-69
2023/04/06 08:12:44;;;;;;;10.48;6.25;;;;;;;;;;5030695;28;20049;-69
2023/04/06 08:15:11;;;;;;;7.88;5.38;;;;;;;;;;5029933;28;20487;-69
2023/04/06 08:17:38;;;;;;;11.32;6.53;;;;;;;;;;5030163;28;20049;-69
2023/04/06 08:20:05;;;;;;;9.30;6.45;;;;;;;;;;5015532;28;20049;-69
2023/04/06 08:22:31;;;;;;;10.38;6.55;;;;;;;;;;5010982;28;20052;-70
2023/04/06 08:24:58;;;;;;;11.85;6.00;;;;;;;;;;5010098;28;20046;-69
2023/04/06 08:27:25;;;;;;;10.40;5.60;;;;;;;;;;5010451;28;20054;-68
2023/04/06 08:29:58;;;;;;;8.10;5.53;;;;;;;;;;5014547;28;20045;-68
2023/04/06 08:32:26;;;;;;;8.60;6.05;;;;;;;;;;5030172;28;20410;-69
2023/04/06 08:34:54;;;;;;;11.63;6.25;;;;;;;;;;5029403;28;20045;-69
2023/04/06 08:37:21;;;;;;;8.10;5.65;;;;;;;;;;5029740;28;20577;-69
2023/04/06 08:39:47;;;;;;;10.13;5.88;;;;;;;;;;5029871;28;20049;-69
2023/04/06 08:42:20;;;;;;;9.35;5.70;;;;;;;;;;5030203;28;20049;-69
2023/04/06 08:44:48;;;;;;;9.55;5.70;;;;;;;;;;5029843;28;20049;-69
2023/04/06 08:47:16;;;;;;;10.45;6.50;;;;;;;;;;5029436;28;20053;-69
2023/04/06 08:49:44;;;;;;;11.45;6.28;;;;;;;;;;5025398;28;20045;-69
2023/04/06 08:52:11;;;;;;;11.18;6.85;;;;;;;;;;5015859;28;20042;-69
2023/04/06 08:54:38;;;;;;;9.52;6.20;;;;;;;;;;5029811;28;20556;-68
2023/04/06 08:57:06;;;;;;;10.48;6.50;;;;;;;;;;5029093;28;20152;-69
2023/04/06 08:59:33;;;;;;;10.95;6.40;;;;;;;;;;5030150;28;20076;-68
2023/04/06 09:02:02;;;;;;;11.23;6.65;;;;;;;;;;5029818;28;20072;-68
2023/04/06 09:04:30;;;;;;;11.75;7.38;;;;;;;;;;5030163;28;20065;-69
2023/04/06 09:06:57;;;;;;;15.00;7.80;;;;;;;;;;5029474;28;20050;-69
2023/04/06 09:09:24;;;;;;;10.63;7.43;;;;;;;;;;5030066;28;20053;-68
2023/04/06 09:11:52;;;;;;;13.05;6.93;;;;;;;;;;5029636;28;20132;-68
2023/04/06 09:14:34;;;;;;;10.43;6.45;;;;;;;;;;5029511;28;20052;-67
2023/04/06 09:17:01;;;;;;;10.50;6.22;;;;;;;;;;5029366;28;20411;-67
2023/04/06 09:19:27;;;;;;;10.93;6.70;;;;;;;;;;5025618;28;20417;-67
2023/04/06 09:22:04;;;;;;;10.77;6.43;;;;;;;;;;5029190;28;20057;-68
2023/04/06 09:24:40;;;;;;;9.95;6.40;;;;;;;;;;5029649;28;20466;-68
2023/04/06 09:27:07;;;;;;;13.10;6.75;;;;;;;;;;5029230;28;20045;-67
2023/04/06 09:29:34;;;;;;;10.63;6.10;;;;;;;;;;5029612;28;20041;-70
2023/04/06 09:32:05;;;;;;;15.57;6.75;;;;;;;;;;5029736;28;20103;-68
2023/04/06 09:34:32;;;;;;;10.35;5.85;;;;;;;;;;5029077;28;20526;-70
2023/04/06 09:36:59;;;;;;;11.68;6.90;;;;;;;;;;5029369;28;20423;-69
2023/04/06 09:39:27;;;;;;;11.18;6.95;;;;;;;;;;5029366;28;20087;-68
2023/04/06 09:41:56;;;;;;;11.02;5.95;;;;;;;;;;5029526;28;20488;-69
2023/04/06 09:44:23;;;;;;;12.40;5.88;;;;;;;;;;5029243;28;20073;-68
2023/04/06 09:46:54;;;;;;;9.02;5.68;;;;;;;;;;5030411;28;20045;-69
2023/04/06 09:49:21;;;;;;;10.63;6.00;;;;;;;;;;5030199;28;20565;-68
2023/04/06 09:51:54;;;;;;;10.88;6.68;;;;;;;;;;5032907;28;20042;-69
2023/04/06 09:54:23;;;;;;;11.23;5.78;;;;;;;;;;5033243;28;20152;-69
2023/04/06 09:56:58;;;;;;;10.52;5.55;;;;;;;;;;5032988;28;20483;-69
2023/04/06 09:59:31;;;;;;;10.18;5.95;;;;;;;;;;5033166;28;20068;-70
2023/04/06 10:01:59;;;;;;;10.02;6.20;;;;;;;;;;5032910;28;20045;-69
2023/04/06 10:04:36;;;;;;;9.88;5.35;;;;;;;;;;5032756;28;20414;-69
2023/04/06 10:07:03;;;;;;;9.77;5.75;;;;;;;;;;5032655;28;20092;-69
2023/04/06 10:09:35;;;;;;;10.73;5.82;;;;;;;;;;5032830;28;20052;-69
2023/04/06 10:12:05;;;;;;;11.90;6.47;;;;;;;;;;5032736;28;20053;-69
2023/04/06 10:14:33;;;;;;;11.30;5.72;;;;;;;;;;5032832;28;20045;-69
2023/04/06 10:17:01;;;;;;;11.60;6.30;;;;;;;;;;5032895;28;20526;-69
2023/04/06 10:19:35;;;;;;;10.73;6.07;;;;;;;;;;5030815;28;20487;-69
2023/04/06 10:22:03;;;;;;;11.02;6.22;;;;;;;;;;5032605;28;20089;-70
2023/04/06 10:24:30;;;;;;;9.82;5.50;;;;;;;;;;5032715;28;20041;-69
2023/04/06 10:27:02;;;;;;;13.02;6.25;;;;;;;;;;5032723;28;20509;-69
2023/04/06 10:29:43;;;;;;;9.50;5.55;;;;;;;;;;5032323;28;20052;-67
2023/04/06 10:32:09;;;;;;;9.45;5.82;;;;;;;;;;5032711;28;20125;-69
2023/04/06 10:34:36;;;;;;;10.45;5.50;;;;;;;;;;5027839;22;20042;-63
2023/04/06 10:37:12;;;;;;;10.82;6.03;;;;;;;;;;5012284;28;20050;-63
2023/04/06 10:39:47;;;;;;;12.10;5.93;;;;;;;;;;5012999;28;20396;-66
2023/04/06 10:42:14;;;;;;;11.80;5.75;;;;;;;;;;5012885;28;20535;-66
2023/04/06 10:44:45;;;;;;;9.00;4.72;;;;;;;;;;5012347;28;20042;-65
2023/04/06 10:47:18;;;;;;;9.25;4.93;;;;;;;;;;5012276;28;20054;-63
2023/04/06 10:49:44;;;;;;;9.38;5.03;;;;;;;;;;5012520;28;20054;-66
2023/04/06 10:52:12;;;;;;;11.80;5.55;;;;;;;;;;5012287;28;20049;-64
2023/04/06 10:54:42;;;;;;;9.93;5.10;;;;;;;;;;5011093;28;20053;-65
2023/04/06 10:57:09;;;;;;;10.20;4.93;;;;;;;;;;5011869;28;20399;-66
2023/04/06 10:59:36;;;;;;;9.35;4.78;;;;;;;;;;5010244;28;20412;-66
2023/04/06 11:02:04;;;;;;;9.60;4.78;;;;;;;;;;5012333;28;20042;-66
2023/04/06 11:04:30;;;;;;;7.88;4.60;;;;;;;;;;5012358;28;20046;-65
2023/04/06 11:06:57;;;;;;;10.93;5.10;;;;;;;;;;5012522;28;20488;-66
2023/04/06 11:09:26;;;;;;;10.75;4.65;;;;;;;;;;5012166;28;20073;-65
2023/04/06 11:11:53;;;;;;;11.05;5.15;;;;;;;;;;5012297;28;20046;-65
2023/04/06 11:14:19;;;;;;;14.32;5.90;;;;;;;;;;5012011;28;20455;-66
2023/04/06 11:16:48;;;;;;;7.63;5.03;;;;;;;;;;5011841;28;20514;-64
2023/04/06 11:19:16;;;;;;;11.60;6.00;;;;;;;;;;5012453;28;20494;-65
2023/04/06 11:21:47;;;;;;;8.30;4.95;;;;;;;;;;5012326;28;20426;-66
2023/04/06 11:24:15;;;;;;;10.70;5.53;;;;;;;;;;5012082;28;20049;-65
2023/04/06 11:26:43;;;;;;;9.20;5.55;;;;;;;;;;5011758;28;20057;-65
2023/04/06 11:29:10;;;;;;;10.40;5.70;;;;;;;;;;5011697;28;20061;-65
2023/04/06 11:31:46;;;;;;;11.32;5.75;;;;;;;;;;5012139;28;20049;-65
2023/04/06 11:34:14;;;;;;;11.93;5.47;;;;;;;;;;5011523;28;20056;-64
2023/04/06 11:36:43;;;;;;;10.18;5.22;;;;;;;;;;5011575;28;20077;-65
2023/04/06 11:39:10;;;;;;;10.68;4.95;;;;;;;;;;5011718;28;20046;-65
2023/04/06 11:41:37;;;;;;;8.90;5.38;;;;;;;;;;5011355;28;20100;-65
2023/04/06 11:44:04;;;;;;;10.88;6.35;;;;;;;;;;5011961;28;20048;-66
2023/04/06 11:46:31;;;;;;;10.05;5.32;;;;;;;;;;5011291;28;20050;-64
2023/04/06 11:49:00;;;;;;;10.15;5.38;;;;;;;;;;5011511;28;20050;-66
2023/04/06 11:51:27;;;;;;;13.77;5.72;;;;;;;;;;5011495;28;20057;-65
2023/04/06 11:53:55;;;;;;;9.75;5.35;;;;;;;;;;5011919;28;20049;-65
2023/04/06 11:56:26;;;;;;;10.70;6.30;;;;;;;;;;5011350;28;20046;-65
2023/04/06 11:58:53;;;;;;;10.80;5.70;;;;;;;;;;5011472;28;20052;-64
2023/04/06 12:01:20;;;;;;;8.52;5.20;;;;;;;;;;5011172;28;20052;-66
2023/04/06 12:03:46;;;;;;;10.95;5.80;;;;;;;;;;5011573;28;20046;-66
2023/04/06 12:06:13;;;;;;;8.40;5.32;;;;;;;;;;5011296;28;20046;-64
2023/04/06 12:08:40;;;;;;;9.63;5.70;;;;;;;;;;5011147;28;20046;-64
2023/04/06 12:11:08;;;;;;;10.65;5.63;;;;;;;;;;5011230;28;20069;-65
2023/04/06 12:13:34;;;;;;;8.93;5.65;;;;;;;;;;5011240;28;20049;-66
2023/04/06 12:16:01;;;;;;;7.78;5.32;;;;;;;;;;5010927;28;20049;-66
2023/04/06 12:18:27;;;;;;;8.32;5.57;;;;;;;;;;5010969;28;20045;-65
2023/04/06 12:20:54;;;;;;;9.35;5.10;;;;;;;;;;5010885;28;20049;-66
2023/04/06 12:23:21;;;;;;;7.93;5.68;;;;;;;;;;5011093;28;20042;-65
2023/04/06 12:25:47;;;;;;;10.60;5.70;;;;;;;;;;5011512;28;20045;-65
2023/04/06 12:28:15;;;;;;;9.95;6.05;;;;;;;;;;5011070;28;20492;-64
2023/04/06 12:30:42;;;;;;;8.57;5.03;;;;;;;;;;5011162;28;20077;-64
2023/04/06 12:33:08;;;;;;;9.80;5.80;;;;;;;;;;5011018;28;20042;-66
2023/04/06 12:35:35;;;;;;;9.23;5.93;;;;;;;;;;5011080;28;20046;-66
2023/04/06 12:38:02;;;;;;;10.10;6.00;;;;;;;;;;5010542;28;20553;-65
2023/04/06 12:40:29;;;;;;;11.80;5.65;;;;;;;;;;5011108;28;20388;-65
2023/04/06 12:42:56;;;;;;;8.40;4.97;;;;;;;;;;5010552;28;20411;-65
2023/04/06 12:45:24;;;;;;;9.70;5.75;;;;;;;;;;5010715;28;20053;-65
2023/04/06 12:47:51;;;;;;;12.13;5.70;;;;;;;;;;5010709;28;20422;-65
2023/04/06 12:50:18;;;;;;;8.95;5.20;;;;;;;;;;5010765;28;20057;-65
2023/04/06 12:52:45;;;;;;;7.88;5.05;;;;;;;;;;5010676;28;20563;-65
2023/04/06 12:55:11;;;;;;;10.25;5.28;;;;;;;;;;5010419;28;20046;-65
2023/04/06 12:57:38;;;;;;;9.48;5.32;;;;;;;;;;5010237;28;20061;-65
2023/04/06 13:00:06;;;;;;;7.82;4.95;;;;;;;;;;5010754;28;20045;-66
2023/04/06 13:02:34;;;;;;;7.70;4.78;;;;;;;;;;5010395;28;20050;-66
2023/04/06 13:05:00;;;;;;;5.68;4.00;;;;;;;;;;5010310;28;20045;-65
2023/04/06 13:07:27;;;;;;;6.80;4.50;;;;;;;;;;5010239;28;20046;-64
2023/04/06 13:09:53;;;;;;;6.38;4.10;;;;;;;;;;5010449;28;20053;-65
2023/04/06 13:12:20;;;;;;;8.38;4.32;;;;;;;;;;5010391;28;20053;-64
2023/04/06 13:14:50;;;;;;;6.53;4.55;;;;;;;;;;5010381;28;20046;-65
2023/04/06 13:17:17;;;;;;;10.70;4.18;;;;;;;;;;5010290;28;20057;-65
2023/04/06 13:19:45;;;;;;;7.55;4.38;;;;;;;;;;5010167;28;20056;-64
2023/04/06 13:22:11;;;;;;;5.80;4.15;;;;;;;;;;5012366;28;20411;-65
2023/04/06 13:24:38;;;;;;;7.22;4.72;;;;;;;;;;5014287;28;20414;-65
2023/04/06 13:27:05;;;;;;;8.68;5.10;;;;;;;;;;5014533;28;20402;-65
2023/04/06 13:29:31;;;;;;;8.93;5.25;;;;;;;;;;5014427;28;20077;-66
2023/04/06 13:31:58;;;;;;;7.30;4.72;;;;;;;;;;5014536;28;20050;-64
2023/04/06 13:34:24;;;;;;;9.15;5.55;;;;;;;;;;5014094;28;20046;-65
2023/04/06 13:36:52;;;;;;;10.52;5.30;;;;;;;;;;5014366;28;20399;-65
2023/04/06 13:39:19;;;;;;;9.13;5.88;;;;;;;;;;5014050;28;20056;-65
2023/04/06 13:41:46;;;;;;;8.45;5.78;;;;;;;;;;5014306;28;20045;-66
2023/04/06 13:44:12;;;;;;;8.90;5.32;;;;;;;;;;5013928;28;20509;-65
2023/04/06 13:46:39;;;;;;;8.70;5.47;;;;;;;;;;5013937;28;20092;-65
2023/04/06 13:49:06;;;;;;;9.38;5.80;;;;;;;;;;5013547;28;20065;-64
2023/04/06 13:51:32;;;;;;;7.70;5.50;;;;;;;;;;5013835;28;20056;-65
2023/04/06 13:54:00;;;;;;;11.77;5.50;;;;;;;;;;5013815;28;20080;-65
2023/04/06 13:56:27;;;;;;;76.45;52.65;;;;;;;;;;5014051;28;20049;-65
2023/04/06 13:58:55;;;;;;;18.48;12.00;;;;;;;;;;5013570;28;20068;-66
2023/04/06 14:01:22;;;;;;;9.95;7.30;;;;;;;;;;5013724;28;20046;-64
2023/04/06 14:03:49;;;;;;;8.20;5.15;;;;;;;;;;5013679;28;20046;-65
2023/04/06 14:06:16;;;;;;;10.77;5.97;;;;;;;;;;5013547;28;20415;-65
2023/04/06 14:08:42;;;;;;;9.50;5.38;;;;;;;;;;5013595;28;20408;-66
2023/04/06 14:11:13;;;;;;;9.05;5.82;;;;;;;;;;5013555;28;20116;-64
2023/04/06 14:13:40;;;;;;;9.38;5.95;;;;;;;;;;5013312;28;20060;-64
2023/04/06 14:16:07;;;;;;;7.80;5.60;;;;;;;;;;5013426;28;20052;-66
2023/04/06 14:18:34;;;;;;;10.50;5.72;;;;;;;;;;5013449;28;20384;-64
2023/04/06 14:21:01;;;;;;;9.88;5.97;;;;;;;;;;5013257;28;20056;-66
2023/04/06 14:23:28;;;;;;;9.45;4.95;;;;;;;;;;5013581;28;20119;-65
2023/04/06 14:26:03;;;;;;;9.13;5.15;;;;;;;;;;5013463;28;20050;-65
2023/04/06 14:28:31;;;;;;;8.52;4.90;;;;;;;;;;5013160;28;20288;-65
2023/04/06 14:30:57;;;;;;;8.35;5.57;;;;;;;;;;5013184;28;20303;-62
2023/04/06 14:33:24;;;;;;;9.40;7.05;;;;;;;;;;5011817;28;20046;-65
2023/04/06 14:35:51;;;;;;;7.18;5.28;;;;;;;;;;5013015;28;20050;-66
2023/04/06 14:38:17;;;;;;;6.90;5.15;;;;;;;;;;5013508;28;20057;-66
2023/04/06 14:40:44;;;;;;;8.30;5.50;;;;;;;;;;5013040;28;20046;-64
2023/04/06 14:43:10;;;;;;;8.43;4.72;;;;;;;;;;5013468;28;20057;-66
2023/04/06 14:45:39;;;;;;;7.13;4.80;;;;;;;;;;5012481;28;20049;-67